Time;durP1;ratioP1;P1;durP2;ratioP2;P2;SDS_P1;SDS_P2;PMS_P1;PMS_P2;Temp;Humidity;BMP_temperature;BMP_pressure;BME280_temperature;BME280_humidity;BME280_pressure;Samples;Min_cycle;Max_cycle;Signal;HPM_P1;HPM_P2
2023/04/17 00:01:06;;;;;;;7.15;3.00;;;;;;;10.69;53.05;101956.66;5072711;28;20040;-63
2023/04/17 00:03:34;;;;;;;8.82;2.30;;;;;;;10.72;53.01;101960.78;5072231;28;20547;-62
2023/04/17 00:06:02;;;;;;;10.25;2.78;;;;;;;10.58;53.60;101955.06;5072849;28;20052;-63
2023/04/17 00:08:30;;;;;;;9.32;2.65;;;;;;;10.57;53.74;101947.91;5074543;28;20480;-61
2023/04/17 00:10:57;;;;;;;7.82;2.60;;;;;;;10.57;53.53;101947.91;5070311;28;20400;-62
2023/04/17 00:13:35;;;;;;;7.53;3.22;;;;;;;10.50;54.08;101946.56;5074221;28;20059;-61
2023/04/17 00:16:03;;;;;;;8.27;2.63;;;;;;;10.72;53.91;101944.25;5071187;28;20048;-61
2023/04/17 00:18:30;;;;;;;8.50;2.45;;;;;;;10.61;53.85;101940.72;5074252;28;20154;-61
2023/04/17 00:20:57;;;;;;;8.98;2.75;;;;;;;10.69;54.27;101931.00;5070885;28;20053;-61
2023/04/17 00:23:25;;;;;;;6.90;2.65;;;;;;;10.70;54.09;101925.25;5072677;28;20056;-63
2023/04/17 00:25:52;;;;;;;8.13;2.85;;;;;;;10.47;54.60;101930.59;5071599;28;20054;-61
2023/04/17 00:28:19;;;;;;;6.95;2.97;;;;;;;10.14;55.95;101932.13;5072434;28;20060;-62
2023/04/17 00:30:46;;;;;;;10.48;3.17;;;;;;;9.93;56.85;101928.59;5072657;28;20044;-62
2023/04/17 00:33:14;;;;;;;11.77;3.35;;;;;;;10.29;56.33;101923.00;5045859;28;20052;-63
2023/04/17 00:35:41;;;;;;;8.98;3.00;;;;;;;10.45;56.17;101924.53;5074914;28;20057;-61
2023/04/17 00:38:09;;;;;;;10.48;3.00;;;;;;;10.44;55.87;101921.00;5058853;28;20056;-62
2023/04/17 00:40:36;;;;;;;8.30;2.95;;;;;;;10.12;56.89;101924.16;5058032;28;20045;-63
2023/04/17 00:43:06;;;;;;;9.10;3.22;;;;;;;10.28;57.00;101922.16;5076191;28;20059;-63
2023/04/17 00:45:34;;;;;;;9.48;3.25;;;;;;;10.16;57.62;101924.41;5076361;28;20376;-63
2023/04/17 00:48:03;;;;;;;6.82;3.40;;;;;;;9.98;58.39;101917.56;5070431;28;20060;-63
2023/04/17 00:50:31;;;;;;;7.53;3.05;;;;;;;10.24;58.11;101918.31;5074387;28;20052;-63
2023/04/17 00:52:59;;;;;;;9.73;3.50;;;;;;;10.32;57.67;101914.16;5075726;28;20064;-63
2023/04/17 00:55:27;;;;;;;7.57;3.22;;;;;;;10.34;57.73;101912.75;5075549;28;20380;-63
2023/04/17 00:57:55;;;;;;;6.65;3.53;;;;;;;10.38;57.49;101911.09;5075169;28;20060;-63
2023/04/17 01:00:23;;;;;;;8.35;3.22;;;;;;;10.28;58.19;101905.63;5075194;28;20059;-64
2023/04/17 01:02:51;;;;;;;7.45;3.25;;;;;;;10.20;58.32;101897.94;5076015;28;20048;-63
2023/04/17 01:05:19;;;;;;;8.95;3.20;;;;;;;10.12;58.67;101895.78;5077041;28;20399;-64
2023/04/17 01:07:47;;;;;;;5.93;3.13;;;;;;;10.30;58.61;101902.59;5075251;28;20428;-62
2023/04/17 01:10:14;;;;;;;9.93;3.83;;;;;;;10.16;58.82;101892.19;5040870;28;20061;-63
2023/04/17 01:12:45;;;;;;;8.43;3.25;;;;;;;10.08;59.46;101898.28;5056732;28;20415;-63
2023/04/17 01:15:12;;;;;;;6.93;3.47;;;;;;;10.14;59.47;101897.16;5074653;28;20503;-62
2023/04/17 01:17:40;;;;;;;8.00;3.50;;;;;;;10.19;59.39;101894.38;5074363;28;20059;-64
2023/04/17 01:20:09;;;;;;;12.45;4.15;;;;;;;10.11;59.97;101896.91;5076885;28;20049;-64
2023/04/17 01:22:37;;;;;;;9.02;3.70;;;;;;;9.94;60.69;101894.44;5075647;28;20068;-64
2023/04/17 01:25:05;;;;;;;11.13;3.75;;;;;;;10.04;60.21;101904.59;5074898;28;20056;-63
2023/04/17 01:27:35;;;;;;;8.98;3.97;;;;;;;9.87;61.05;101896.66;5074282;28;20057;-63
2023/04/17 01:30:03;;;;;;;13.30;4.07;;;;;;;9.79;61.45;101900.00;5041631;28;20052;-63
2023/04/17 01:32:35;;;;;;;12.00;3.90;;;;;;;9.77;61.95;101902.22;5067557;28;20393;-63
2023/04/17 01:35:02;;;;;;;9.93;4.15;;;;;;;9.78;61.98;101886.53;5055877;28;20045;-63
2023/04/17 01:37:30;;;;;;;9.52;4.28;;;;;;;9.74;62.15;101900.03;5059640;28;20072;-63
2023/04/17 01:39:58;;;;;;;9.70;4.05;;;;;;;9.84;62.01;101888.16;5056097;28;20055;-63
2023/04/17 01:42:25;;;;;;;9.32;3.80;;;;;;;9.75;62.33;101892.56;5072193;28;20087;-63
2023/04/17 01:44:52;;;;;;;10.35;4.15;;;;;;;9.75;62.34;101896.16;5075244;28;20052;-63
2023/04/17 01:47:20;;;;;;;10.60;4.30;;;;;;;9.95;61.86;101896.13;5074069;28;20490;-64
2023/04/17 01:49:47;;;;;;;10.57;4.00;;;;;;;9.96;61.81;101894.16;5061637;28;20053;-63
2023/04/17 01:52:14;;;;;;;10.98;3.80;;;;;;;10.00;61.95;101898.84;5071564;28;20071;-63
2023/04/17 01:54:42;;;;;;;9.35;4.00;;;;;;;10.03;61.70;101900.19;5058592;28;20044;-63
2023/04/17 01:57:09;;;;;;;10.27;4.22;;;;;;;10.29;60.11;101895.44;5073434;28;20061;-63
2023/04/17 01:59:37;;;;;;;9.85;4.25;;;;;;;9.93;61.23;101890.06;5058833;28;20518;-63
2023/04/17 02:02:04;;;;;;;14.40;4.53;;;;;;;9.50;62.97;101903.66;5074086;28;20052;-63
2023/04/17 02:04:32;;;;;;;9.02;4.60;;;;;;;9.64;62.87;101913.78;5074928;28;20522;-62
2023/04/17 02:06:59;;;;;;;13.45;4.80;;;;;;;9.48;63.48;101914.09;5074640;28;20048;-65
2023/04/17 02:09:26;;;;;;;11.00;4.80;;;;;;;9.29;64.49;101913.00;5074859;28;20063;-63
2023/04/17 02:11:55;;;;;;;7.55;4.30;;;;;;;9.26;64.61;101910.81;5072582;28;20052;-63
2023/04/17 02:14:22;;;;;;;9.75;4.85;;;;;;;9.41;64.90;101908.88;5074694;28;20045;-65
2023/04/17 02:16:49;;;;;;;12.27;5.05;;;;;;;9.26;65.17;101905.31;5056546;28;20053;-64
2023/04/17 02:19:17;;;;;;;8.93;4.38;;;;;;;9.46;64.50;101900.63;5075749;28;20071;-63
2023/04/17 02:21:44;;;;;;;9.60;4.70;;;;;;;9.61;63.99;101905.25;5072422;28;20063;-63
2023/04/17 02:24:11;;;;;;;11.25;4.60;;;;;;;9.40;64.25;101900.88;5074738;28;20056;-64
2023/04/17 02:26:39;;;;;;;9.10;4.70;;;;;;;9.33;64.58;101895.69;5052079;28;20041;-64
2023/04/17 02:29:06;;;;;;;11.70;5.05;;;;;;;9.35;64.84;101895.41;5073671;28;20056;-63
2023/04/17 02:31:35;;;;;;;9.85;4.82;;;;;;;9.42;64.54;101893.19;5072657;28;20044;-63
2023/04/17 02:34:03;;;;;;;10.50;4.97;;;;;;;9.29;64.77;101891.84;5055987;28;20052;-63
2023/04/17 02:36:31;;;;;;;8.63;4.32;;;;;;;9.24;64.75;101897.31;5039164;28;20107;-63
2023/04/17 02:38:58;;;;;;;9.45;5.03;;;;;;;9.21;64.73;101897.06;5074475;28;20411;-63
2023/04/17 02:41:25;;;;;;;13.25;4.70;;;;;;;9.38;64.58;101892.91;5072103;28;20092;-64
2023/04/17 02:43:53;;;;;;;12.35;5.22;;;;;;;9.23;65.06;101898.44;5073231;28;20118;-63
2023/04/17 02:46:20;;;;;;;12.35;5.53;;;;;;;9.20;65.62;101888.00;5073810;28;20135;-63
2023/04/17 02:48:47;;;;;;;9.13;5.20;;;;;;;9.36;65.28;101897.06;5053820;28;20055;-63
2023/04/17 02:51:15;;;;;;;11.90;5.35;;;;;;;9.42;65.44;101890.44;5061140;28;20048;-65
2023/04/17 02:53:42;;;;;;;12.38;5.82;;;;;;;9.50;64.85;101896.19;5056890;28;20056;-64
2023/04/17 02:56:09;;;;;;;11.52;5.88;;;;;;;9.49;65.33;101893.72;5071760;28;20047;-63
2023/04/17 02:58:38;;;;;;;10.73;5.80;;;;;;;9.45;65.62;101893.47;5073923;28;20056;-64
2023/04/17 03:01:07;;;;;;;12.70;5.88;;;;;;;9.24;66.22;101891.03;5071073;28;20048;-63
2023/04/17 03:03:39;;;;;;;11.70;5.53;;;;;;;9.33;66.42;101889.38;5073439;28;20045;-63
2023/04/17 03:06:10;;;;;;;14.00;6.47;;;;;;;9.32;66.73;101888.53;5072181;28;20044;-64
2023/04/17 03:08:37;;;;;;;13.18;6.47;;;;;;;9.12;67.71;101885.78;5056781;28;20052;-63
2023/04/17 03:11:05;;;;;;;12.05;6.55;;;;;;;9.26;67.83;101884.13;5039171;28;20040;-63
2023/04/17 03:13:35;;;;;;;13.88;6.78;;;;;;;8.99;68.70;101889.09;5073633;28;20411;-63
2023/04/17 03:16:03;;;;;;;16.60;7.07;;;;;;;9.03;69.37;101887.47;5055994;28;20502;-63
2023/04/17 03:18:34;;;;;;;16.15;7.47;;;;;;;9.03;69.63;101888.28;5056971;28;20110;-64
2023/04/17 03:21:02;;;;;;;13.90;7.57;;;;;;;9.26;68.81;101888.84;5071634;28;20061;-64
2023/04/17 03:23:29;;;;;;;13.07;7.00;;;;;;;9.13;68.89;101891.00;5057366;28;20048;-63
2023/04/17 03:25:57;;;;;;;12.32;7.03;;;;;;;9.16;68.99;101891.56;5071987;28;20052;-64
2023/04/17 03:28:24;;;;;;;10.48;7.32;;;;;;;9.18;68.90;101887.44;5056298;28;20056;-63
2023/04/17 03:30:53;;;;;;;14.32;7.50;;;;;;;9.25;69.19;101889.91;5071633;28;20514;-63
2023/04/17 03:33:21;;;;;;;12.50;6.93;;;;;;;9.24;68.45;101880.03;5073521;28;20059;-64
2023/04/17 03:35:48;;;;;;;13.55;7.00;;;;;;;9.27;68.67;101876.72;5071870;28;20051;-63
2023/04/17 03:38:16;;;;;;;14.90;7.32;;;;;;;9.23;68.28;101883.88;5073672;28;20052;-63
2023/04/17 03:40:44;;;;;;;11.05;6.93;;;;;;;9.09;68.74;101891.84;5071583;28;20052;-62
2023/04/17 03:43:11;;;;;;;21.25;7.97;;;;;;;8.99;69.31;101889.94;5057015;28;20052;-62
2023/04/17 03:45:39;;;;;;;13.15;7.55;;;;;;;9.06;68.89;101893.25;5072191;28;20048;-63
2023/04/17 03:48:06;;;;;;;15.38;6.97;;;;;;;9.05;69.28;101902.56;5073498;28;20044;-62
2023/04/17 03:50:34;;;;;;;12.77;7.53;;;;;;;9.18;68.85;101898.44;5071891;28;20064;-62
2023/04/17 03:53:02;;;;;;;16.52;7.07;;;;;;;9.40;68.08;101896.22;5073452;28;20048;-63
2023/04/17 03:55:30;;;;;;;13.18;6.97;;;;;;;9.45;67.43;101898.97;5055659;28;20048;-62
2023/04/17 03:57:58;;;;;;;14.27;7.68;;;;;;;9.15;67.86;101890.75;5056256;28;20057;-62
2023/04/17 04:00:30;;;;;;;13.00;7.45;;;;;;;9.15;68.53;101906.41;5072277;28;20063;-61
2023/04/17 04:03:03;;;;;;;14.70;7.70;;;;;;;9.10;69.04;101909.97;5072298;28;20067;-62
2023/04/17 04:05:37;;;;;;;17.42;8.15;;;;;;;9.18;68.92;101903.94;5054672;28;20475;-63
2023/04/17 04:08:06;;;;;;;14.10;8.05;;;;;;;9.34;68.42;101905.59;5076662;28;20060;-62
2023/04/17 04:10:43;;;;;;;14.85;7.72;;;;;;;9.50;67.95;101909.16;5075614;28;20419;-62
2023/04/17 04:13:12;;;;;;;16.70;7.90;;;;;;;9.24;68.05;101911.06;5076836;28;20063;-62
2023/04/17 04:15:43;;;;;;;16.65;7.95;;;;;;;8.89;69.32;101909.16;5075708;28;20049;-62
2023/04/17 04:18:11;;;;;;;14.23;8.40;;;;;;;8.87;69.82;101911.34;5059860;28;20057;-62
2023/04/17 04:20:38;;;;;;;14.15;8.05;;;;;;;8.97;69.80;101903.13;5075883;28;20468;-61
2023/04/17 04:23:15;;;;;;;16.67;8.90;;;;;;;8.84;70.14;101902.81;5061137;28;20056;-62
2023/04/17 04:25:43;;;;;;;13.13;8.25;;;;;;;8.87;70.14;101903.09;5074593;28;20048;-62
2023/04/17 04:28:22;;;;;;;18.75;8.60;;;;;;;9.08;69.56;101909.44;5059980;28;20067;-62
2023/04/17 04:30:51;;;;;;;18.35;9.40;;;;;;;9.13;69.25;101903.94;5059046;28;20048;-62
2023/04/17 04:33:20;;;;;;;16.85;9.10;;;;;;;9.14;69.72;101911.09;5059147;28;20055;-63
2023/04/17 04:35:48;;;;;;;16.67;9.32;;;;;;;8.96;70.31;101915.19;5074926;28;20041;-61
2023/04/17 04:38:16;;;;;;;17.60;9.43;;;;;;;9.05;70.38;101915.47;5076940;28;20060;-61
2023/04/17 04:40:48;;;;;;;21.88;10.75;;;;;;;8.75;71.64;101912.72;5074992;28;20056;-62
2023/04/17 04:43:16;;;;;;;;;;;;;;;8.56;72.72;101912.38;5060432;28;20063;-61
2023/04/17 04:45:46;;;;;;;16.95;10.93;;;;;;;8.58;73.15;101926.66;5057622;28;19924;-62
2023/04/17 04:48:14;;;;;;;18.98;11.75;;;;;;;8.73;72.85;101921.22;5062262;28;20049;-61
2023/04/17 04:50:41;;;;;;;17.45;10.68;;;;;;;9.16;72.15;101925.38;5075454;28;20063;-61
2023/04/17 04:53:09;;;;;;;19.08;12.13;;;;;;;9.09;71.85;101931.16;5063258;28;20067;-61
2023/04/17 04:55:48;;;;;;;26.00;12.63;;;;;;;8.89;73.44;101924.81;5059910;28;20048;-63
2023/04/17 04:58:15;;;;;;;26.17;14.70;;;;;;;8.79;74.69;101928.38;5076505;28;20064;-63
2023/04/17 05:00:44;;;;;;;23.65;14.05;;;;;;;8.78;75.09;101932.22;5072142;28;20048;-62
2023/04/17 05:03:18;;;;;;;23.88;13.65;;;;;;;9.18;73.98;101922.34;5056996;28;20057;-63
2023/04/17 05:05:47;;;;;;;26.60;14.85;;;;;;;8.89;75.05;101930.31;5042912;28;20053;-62
2023/04/17 05:08:16;;;;;;;26.50;14.55;;;;;;;8.97;74.90;101927.03;5077126;28;20045;-62
2023/04/17 05:10:52;;;;;;;30.10;15.10;;;;;;;9.13;74.60;101925.09;5060339;28;20048;-62
2023/04/17 05:13:19;;;;;;;23.15;15.00;;;;;;;9.07;74.31;101925.09;5076489;28;20048;-62
2023/04/17 05:15:47;;;;;;;21.98;14.30;;;;;;;9.00;74.80;101926.47;5073572;28;20056;-62
2023/04/17 05:18:18;;;;;;;29.35;15.77;;;;;;;9.05;74.64;101927.28;5075009;28;20056;-61
2023/04/17 05:20:45;;;;;;;24.02;15.35;;;;;;;9.22;74.45;101923.47;5074233;28;20072;-63
2023/04/17 05:23:12;;;;;;;27.63;15.55;;;;;;;9.15;74.61;101926.50;5077153;28;20511;-62
2023/04/17 05:25:40;;;;;;;26.58;15.55;;;;;;;8.97;75.12;101927.84;5084946;28;20504;-62
2023/04/17 05:28:08;;;;;;;29.83;16.33;;;;;;;9.10;75.03;101934.72;5075520;28;20048;-61
2023/04/17 05:30:35;;;;;;;29.27;15.95;;;;;;;9.12;74.43;101934.47;5075772;28;20059;-62
2023/04/17 05:33:28;;;;;;;26.98;15.75;;;;;;;9.13;74.71;101934.97;5070691;28;20052;-63
2023/04/17 05:35:59;;;;;;;26.75;16.48;;;;;;;9.10;74.72;101937.47;5058419;28;20048;-62
2023/04/17 05:38:30;;;;;;;22.17;15.48;;;;;;;8.98;74.90;101942.41;5074791;28;20492;-62
2023/04/17 05:40:58;;;;;;;23.05;16.17;;;;;;;9.03;75.32;101943.22;5073083;28;20052;-63
2023/04/17 05:43:25;;;;;;;27.23;16.50;;;;;;;9.09;75.34;101935.81;5058572;28;20067;-61
2023/04/17 05:45:53;;;;;;;25.98;16.55;;;;;;;9.04;74.74;101935.81;5074090;28;20055;-62
2023/04/17 05:48:21;;;;;;;25.27;16.38;;;;;;;8.86;75.73;101939.91;5075467;28;20049;-62
2023/04/17 05:50:50;;;;;;;25.33;16.05;;;;;;;9.10;75.74;101938.28;5073076;28;20797;-61
2023/04/17 05:53:18;;;;;;;24.35;16.77;;;;;;;9.31;74.87;101938.31;5075339;28;20447;-62
2023/04/17 05:55:49;;;;;;;25.45;17.33;;;;;;;9.13;74.82;101942.44;5073536;28;20064;-63
2023/04/17 05:58:18;;;;;;;30.20;17.00;;;;;;;8.99;75.71;101935.81;5075241;28;20048;-62
2023/04/17 06:00:53;;;;;;;28.98;18.42;;;;;;;8.79;77.17;101938.53;5073521;28;20064;-62
2023/04/17 06:03:20;;;;;;;26.65;17.40;;;;;;;9.03;76.83;101934.19;5075173;28;20055;-63
2023/04/17 06:05:55;;;;;;;25.40;17.45;;;;;;;9.24;75.71;101935.81;5073223;28;20048;-62
2023/04/17 06:08:24;;;;;;;28.92;17.70;;;;;;;9.56;74.83;101938.28;5074523;28;20067;-62
2023/04/17 06:10:51;;;;;;;25.70;17.85;;;;;;;9.44;74.87;101938.56;5072886;28;20147;-62
2023/04/17 06:13:20;;;;;;;31.88;18.70;;;;;;;9.40;75.57;101937.47;5074410;28;20052;-63
2023/04/17 06:15:50;;;;;;;28.65;17.90;;;;;;;9.62;74.59;101937.19;5072274;28;20731;-64
2023/04/17 06:18:18;;;;;;;25.90;17.35;;;;;;;9.13;76.40;101942.44;5052111;28;20487;-62
2023/04/17 06:20:45;;;;;;;35.55;18.35;;;;;;;9.22;76.73;101945.44;5065918;28;20060;-63
2023/04/17 06:23:13;;;;;;;28.98;19.83;;;;;;;9.36;75.95;101946.56;5074883;28;20057;-62
2023/04/17 06:25:41;;;;;;;34.60;19.55;;;;;;;9.37;76.86;101942.69;5054889;28;20052;-61
2023/04/17 06:28:09;;;;;;;29.17;18.55;;;;;;;9.27;77.54;101942.69;5058300;28;20074;-60
2023/04/17 06:30:36;;;;;;;30.27;18.38;;;;;;;9.72;78.46;101946.25;5079430;28;20052;-62
2023/04/17 06:33:05;;;;;;;32.85;19.67;;;;;;;9.45;76.09;101947.66;5054633;28;20052;-61
2023/04/17 06:35:35;;;;;;;33.45;19.27;;;;;;;9.25;77.21;101950.41;5068488;28;20040;-62
2023/04/17 06:38:13;;;;;;;26.58;18.95;;;;;;;9.34;77.56;101951.50;5069030;28;20049;-62
2023/04/17 06:40:43;;;;;;;33.92;19.30;;;;;;;9.30;78.22;101953.97;5070342;28;20059;-61
2023/04/17 06:43:10;;;;;;;28.98;20.08;;;;;;;9.45;77.87;101956.72;5059691;28;20049;-59
2023/04/17 06:45:41;;;;;;;29.60;20.45;;;;;;;9.29;78.40;101957.84;5063434;28;20067;-62
2023/04/17 06:48:09;;;;;;;34.85;21.58;;;;;;;9.15;79.54;101959.47;5070661;28;20443;-61
2023/04/17 06:50:38;;;;;;;30.45;21.02;;;;;;;9.47;78.74;101960.00;5066084;28;20045;-61
2023/04/17 06:53:06;;;;;;;35.30;22.38;;;;;;;9.34;78.80;101963.34;5067610;28;20488;-60
2023/04/17 06:55:33;;;;;;;40.78;24.55;;;;;;;9.00;81.15;101959.44;5056435;28;20057;-61
2023/04/17 06:58:00;;;;;;;38.80;23.95;;;;;;;9.12;81.32;101965.50;5061963;28;20048;-58
2023/04/17 07:00:29;;;;;;;40.58;25.35;;;;;;;9.07;81.35;101971.00;5067377;28;20056;-59
2023/04/17 07:02:56;;;;;;;39.60;25.25;;;;;;;9.35;80.53;101964.97;5059082;28;20048;-60
2023/04/17 07:05:24;;;;;;;38.28;24.75;;;;;;;9.55;79.65;101975.16;5056866;28;20072;-59
2023/04/17 07:07:53;;;;;;;35.70;24.65;;;;;;;9.74;79.80;101974.31;5069092;28;20040;-58
2023/04/17 07:10:20;;;;;;;38.03;24.40;;;;;;;9.59;79.53;101970.75;5065762;28;20048;-59
2023/04/17 07:12:47;;;;;;;47.03;24.17;;;;;;;9.91;79.10;101979.50;5062416;28;20059;-59
2023/04/17 07:15:15;;;;;;;56.92;26.95;;;;;;;9.79;78.54;101976.22;5069606;28;20040;-59
2023/04/17 07:17:42;;;;;;;58.55;26.65;;;;;;;10.00;78.17;101977.84;5073282;28;20040;-59
2023/04/17 07:20:10;;;;;;;40.20;25.40;;;;;;;9.67;79.13;101975.69;5071857;28;20055;-58
2023/04/17 07:22:38;;;;;;;39.88;25.77;;;;;;;9.46;80.39;101982.28;5066081;28;20519;-60
2023/04/17 07:25:06;;;;;;;39.80;25.80;;;;;;;9.78;80.69;101978.13;5064608;28;20051;-60
2023/04/17 07:27:35;;;;;;;65.63;28.25;;;;;;;9.37;81.53;101983.94;5070088;28;20041;-58
2023/04/17 07:30:03;;;;;;;44.70;25.83;;;;;;;9.41;81.84;101985.06;5069727;28;20043;-59
2023/04/17 07:32:31;;;;;;;42.72;25.77;;;;;;;9.51;81.19;102005.13;5068662;28;20052;-60
2023/04/17 07:34:58;;;;;;;43.10;26.10;;;;;;;9.30;82.40;102005.38;5068967;28;20167;-60
2023/04/17 07:37:25;;;;;;;44.08;27.08;;;;;;;9.30;82.47;102002.63;5058587;28;20048;-61
2023/04/17 07:39:53;;;;;;;48.75;25.95;;;;;;;9.49;82.05;102014.75;5076450;28;20055;-58
2023/04/17 07:42:21;;;;;;;43.22;25.92;;;;;;;9.79;80.71;101999.06;5064637;28;20032;-59
2023/04/17 07:44:48;;;;;;;39.45;26.58;;;;;;;9.65;80.00;102005.41;5064612;28;20056;-62
2023/04/17 07:47:15;;;;;;;41.53;26.20;;;;;;;9.63;80.63;102002.09;5067632;28;20147;-61
2023/04/17 07:49:47;;;;;;;48.15;26.98;;;;;;;9.37;81.22;102000.44;5070953;28;20076;-59
2023/04/17 07:52:16;;;;;;;46.17;27.17;;;;;;;9.13;82.57;101999.31;5066371;28;20049;-60
2023/04/17 07:54:44;;;;;;;40.45;27.52;;;;;;;9.26;82.64;102002.34;5071064;28;20041;-60
2023/04/17 07:57:13;;;;;;;43.22;26.60;;;;;;;9.23;82.16;101997.41;5069684;28;20056;-58
2023/04/17 07:59:41;;;;;;;49.10;29.57;;;;;;;9.07;83.11;101999.31;5060669;28;20040;-60
2023/04/17 08:02:08;;;;;;;49.47;28.30;;;;;;;9.35;83.27;102002.63;5072419;28;20290;-60
2023/04/17 08:04:38;;;;;;;46.60;27.30;;;;;;;9.77;81.08;102001.25;5072326;28;20044;-60
2023/04/17 08:07:09;;;;;;;51.80;27.92;;;;;;;9.54;81.22;102006.50;5068728;28;20052;-59
2023/04/17 08:09:37;;;;;;;53.90;30.20;;;;;;;9.44;81.77;102003.75;5071588;28;20052;-59
2023/04/17 08:12:05;;;;;;;49.35;26.85;;;;;;;9.98;81.41;102002.06;5061422;28;20056;-62
2023/04/17 08:14:32;;;;;;;55.25;31.08;;;;;;;9.81;80.20;102005.13;5060558;28;20056;-60
2023/04/17 08:17:00;;;;;;;48.45;29.13;;;;;;;9.80;80.36;102008.94;5067234;28;20063;-62
2023/04/17 08:19:28;;;;;;;44.85;28.02;;;;;;;9.75;80.77;102010.88;5063800;28;20037;-60
2023/04/17 08:22:03;;;;;;;50.28;29.70;;;;;;;9.26;83.07;102001.56;5067687;28;20049;-60
2023/04/17 08:24:30;;;;;;;43.47;27.88;;;;;;;9.30;83.75;101999.88;5073887;28;20056;-58
2023/04/17 08:26:58;;;;;;;43.70;28.98;;;;;;;9.60;82.35;102005.41;5071846;28;20372;-59
2023/04/17 08:29:25;;;;;;;44.20;28.85;;;;;;;9.65;81.83;102010.91;5071193;28;20049;-60
2023/04/17 08:31:53;;;;;;;43.22;26.75;;;;;;;10.03;81.09;102007.53;5069878;28;20056;-59
2023/04/17 08:34:39;;;;;;;39.88;26.30;;;;;;;10.08;80.37;102013.03;5068503;28;20060;-60
2023/04/17 08:37:06;;;;;;;42.90;28.33;;;;;;;10.04;80.07;102011.97;5068530;28;20045;-58
2023/04/17 08:39:34;;;;;;;45.40;27.90;;;;;;;10.20;79.47;102008.06;5066428;28;20053;-58
2023/04/17 08:42:06;;;;;;;40.47;28.00;;;;;;;10.01;80.77;102015.25;5061141;28;20040;-60
2023/04/17 08:44:34;;;;;;;41.70;27.52;;;;;;;10.03;80.53;102007.53;5072539;28;20075;-60
2023/04/17 08:47:03;;;;;;;46.25;28.17;;;;;;;10.14;79.63;102012.81;5068426;28;20059;-61
2023/04/17 08:49:34;;;;;;;44.80;29.85;;;;;;;10.20;79.92;102008.06;5067905;28;20049;-61
2023/04/17 08:52:03;;;;;;;45.13;29.25;;;;;;;9.77;81.77;102008.69;5068028;28;20060;-60
2023/04/17 08:54:32;;;;;;;52.20;32.60;;;;;;;9.54;81.98;102009.25;5073192;28;20056;-61
2023/04/17 08:57:03;;;;;;;46.28;31.33;;;;;;;9.74;81.93;102001.00;5072723;28;20060;-59
2023/04/17 08:59:31;;;;;;;50.33;31.90;;;;;;;9.68;82.38;102002.09;5071473;28;20045;-60
2023/04/17 09:02:06;;;;;;;48.65;32.10;;;;;;;10.11;80.40;102005.06;5067626;28;20045;-61
2023/04/17 09:04:41;;;;;;;52.42;32.90;;;;;;;9.88;80.12;101994.66;5073608;28;20412;-61
2023/04/17 09:07:11;;;;;;;49.90;33.47;;;;;;;9.98;80.61;102004.81;5067582;28;20048;-58
2023/04/17 09:09:55;;;;;;;50.85;32.30;;;;;;;10.22;79.67;101999.56;5066624;28;20048;-61
2023/04/17 09:12:24;;;;;;;50.38;33.42;;;;;;;10.57;77.37;102003.00;5073368;28;20051;-61
2023/04/17 09:14:52;;;;;;;50.10;32.70;;;;;;;10.65;76.62;102004.34;5035254;28;20055;-60
2023/04/17 09:17:20;;;;;;;57.83;35.55;;;;;;;10.89;75.59;101999.81;5050941;28;20052;-60
2023/04/17 09:20:11;;;;;;;54.42;34.40;;;;;;;10.52;76.50;101999.44;5076761;28;20049;-60
2023/04/17 09:22:39;;;;;;;54.70;32.60;;;;;;;10.70;77.43;102002.41;5071034;28;20048;-61
2023/04/17 09:25:17;;;;;;;52.65;33.75;;;;;;;10.45;76.57;101996.16;5065232;28;20045;-61
2023/04/17 09:27:45;;;;;;;58.95;34.95;;;;;;;10.13;77.87;101996.53;5065996;28;20397;-60
2023/04/17 09:30:12;;;;;;;49.30;33.58;;;;;;;10.23;78.29;101999.28;5063697;28;20401;-61
2023/04/17 09:32:40;;;;;;;57.47;33.35;;;;;;;10.60;77.23;101999.66;5068597;28;20056;-60
2023/04/17 09:35:07;;;;;;;57.60;35.08;;;;;;;10.48;77.65;102001.94;5075574;28;20051;-61
2023/04/17 09:37:48;;;;;;;56.53;34.08;;;;;;;10.32;78.02;102005.03;5068066;28;20050;-61
2023/04/17 09:40:17;;;;;;;56.38;34.70;;;;;;;10.29;77.77;102006.41;5063448;28;20060;-61
2023/04/17 09:42:59;;;;;;;54.53;34.28;;;;;;;10.72;76.81;102008.44;5057053;28;20052;-61
2023/04/17 09:45:32;;;;;;;55.33;34.25;;;;;;;10.95;75.11;101999.50;5072248;28;20048;-60
2023/04/17 09:48:00;;;;;;;51.03;32.70;;;;;;;10.60;75.46;102005.19;5049816;28;20056;-61
2023/04/17 09:50:27;;;;;;;56.13;34.50;;;;;;;10.48;76.86;101992.88;5071029;28;20060;-61
2023/04/17 09:52:55;;;;;;;55.03;33.33;;;;;;;10.50;77.19;101993.38;5072778;28;20075;-61
2023/04/17 09:55:23;;;;;;;56.30;34.13;;;;;;;10.55;76.65;101988.69;5069467;28;21154;-61
2023/04/17 09:57:55;;;;;;;51.22;33.83;;;;;;;10.71;76.00;101982.00;5067860;28;20048;-60
2023/04/17 10:00:25;;;;;;;56.13;33.83;;;;;;;10.68;75.81;101990.00;5079610;28;20055;-61
2023/04/17 10:02:54;;;;;;;54.58;34.38;;;;;;;10.77;75.68;101986.38;5073743;28;20052;-61
2023/04/17 10:05:24;;;;;;;51.38;32.20;;;;;;;10.96;75.58;101983.78;5069776;28;20048;-61
2023/04/17 10:07:52;;;;;;;64.47;35.20;;;;;;;11.03;75.03;101998.91;5066667;28;20068;-61
2023/04/17 10:10:24;;;;;;;56.00;34.83;;;;;;;10.68;75.91;101992.75;5070037;28;20051;-60
2023/04/17 10:12:58;;;;;;;62.58;34.03;;;;;;;10.50;76.66;101991.47;5065914;28;20059;-61
2023/04/17 10:15:26;;;;;;;62.92;35.00;;;;;;;10.43;77.58;102001.94;5074378;28;20048;-63
2023/04/17 10:17:55;;;;;;;58.92;35.10;;;;;;;10.88;76.75;101998.97;5045722;28;20527;-61
2023/04/17 10:20:22;;;;;;;54.60;33.88;;;;;;;10.69;76.25;102011.75;5056161;28;20033;-63
2023/04/17 10:22:55;;;;;;;64.20;36.72;;;;;;;10.49;77.32;102000.84;5058817;28;20053;-63
2023/04/17 10:25:27;;;;;;;58.60;34.47;;;;;;;10.14;79.28;102003.72;5053460;28;20053;-63
2023/04/17 10:27:59;;;;;;;72.40;34.45;;;;;;;10.26;79.35;102006.13;5056823;28;20065;-66
2023/04/17 10:30:52;;;;;;;70.05;35.88;;;;;;;10.44;79.04;101998.13;5033817;28;20049;-66
2023/04/17 10:33:23;;;;;;;60.90;34.28;;;;;;;10.74;77.42;101986.94;5072233;28;20055;-62
2023/04/17 10:35:52;;;;;;;54.70;33.05;;;;;;;10.91;76.12;101992.88;5070262;28;20065;-62
2023/04/17 10:38:35;;;;;;;57.90;32.90;;;;;;;10.62;77.27;101978.19;5073747;28;20047;-61
2023/04/17 10:41:07;;;;;;;52.60;32.88;;;;;;;10.42;78.56;101996.72;5070480;28;20053;-63
2023/04/17 10:43:42;;;;;;;57.00;33.85;;;;;;;10.80;77.94;101987.72;5067686;28;20044;-62
2023/04/17 10:46:13;;;;;;;54.75;34.08;;;;;;;11.09;76.61;101988.66;5086697;28;20063;-63
2023/04/17 10:48:51;;;;;;;53.80;33.53;;;;;;;10.98;76.83;101987.09;5072716;28;20048;-61
2023/04/17 10:51:25;;;;;;;53.40;32.50;;;;;;;11.01;77.01;101992.03;5050925;28;20063;-63
2023/04/17 10:53:53;;;;;;;52.67;33.97;;;;;;;10.70;77.97;101988.63;5074911;28;20048;-62
2023/04/17 10:56:25;;;;;;;55.97;34.13;;;;;;;10.29;79.21;101992.63;5072979;28;20052;-63
2023/04/17 10:59:07;;;;;;;55.70;33.05;;;;;;;10.36;78.82;101979.41;5074925;28;20049;-62
2023/04/17 11:01:41;;;;;;;53.60;34.30;;;;;;;10.64;78.52;101978.72;5062052;28;20052;-61
2023/04/17 11:04:10;;;;;;;52.45;33.00;;;;;;;10.76;78.19;101978.38;5062783;28;20056;-65
2023/04/17 11:06:41;;;;;;;58.15;34.88;;;;;;;10.72;77.88;101985.59;5054170;28;20159;-62
2023/04/17 11:09:09;;;;;;;63.33;37.17;;;;;;;10.28;79.30;101985.50;5070511;28;20044;-59
2023/04/17 11:11:38;;;;;;;60.85;37.03;;;;;;;10.30;79.58;101986.03;5072552;28;20064;-65
2023/04/17 11:14:16;;;;;;;57.22;35.10;;;;;;;10.43;79.53;101977.16;5049926;28;20063;-64
2023/04/17 11:16:45;;;;;;;59.35;34.53;;;;;;;10.56;78.95;101982.09;5069169;28;20064;-63
2023/04/17 11:19:17;;;;;;;54.57;31.63;;;;;;;10.49;78.53;101983.47;5053058;28;20045;-61
2023/04/17 11:21:47;;;;;;;49.67;31.33;;;;;;;10.64;78.08;101969.63;5068863;28;20283;-64
2023/04/17 11:24:27;;;;;;;54.40;31.40;;;;;;;11.02;77.31;101961.41;5073023;28;20059;-63
2023/04/17 11:26:57;;;;;;;48.70;30.17;;;;;;;10.54;77.49;101956.75;5072930;28;20052;-62
2023/04/17 11:29:25;;;;;;;60.42;32.47;;;;;;;10.66;77.97;101953.63;5070234;28;20036;-67